Time;durP1;ratioP1;P1;durP2;ratioP2;P2;SDS_P1;SDS_P2;PMS_P1;PMS_P2;Temp;Humidity;BMP_temperature;BMP_pressure;BME280_temperature;BME280_humidity;BME280_pressure;Samples;Min_cycle;Max_cycle;Signal;HPM_P1;HPM_P2
2022/09/25 00:04:39;;;;;;;28.60;16.20;;;;;;;8.66;92.30;98428.38;219980;1278;24770;-73
2022/09/25 00:10:33;;;;;;;28.40;17.60;;;;;;;8.76;92.17;98428.36;219900;1278;25260;-73
2022/09/25 00:16:36;;;;;;;;;;;;;;;;;;;;;
2022/09/25 00:22:48;;;;;;;30.30;17.90;;;;;;;8.93;92.23;98426.05;220176;1279;22636;-72
2022/09/25 00:29:14;;;;;;;16.20;10.10;;;;;;;9.00;92.26;98425.11;220339;1278;22598;-74
2022/09/25 00:36:01;;;;;;;28.20;16.50;;;;;;;9.05;92.24;98414.52;220279;1279;23314;-74
2022/09/25 00:49:21;;;;;;;30.80;18.00;;;;;;;9.12;92.06;98407.97;220196;1279;22548;-74
2022/09/25 00:55:50;;;;;;;30.40;18.00;;;;;;;9.14;92.01;98402.44;220545;1279;22571;-73
2022/09/25 01:01:39;;;;;;;30.40;18.20;;;;;;;9.17;92.02;98403.63;220028;1279;22591;-73
2022/09/25 01:08:02;;;;;;;29.40;17.70;;;;;;;9.20;91.91;98402.09;219907;1278;24331;-74
2022/09/25 01:28:57;;;;;;;30.70;18.30;;;;;;;9.30;91.89;98394.58;219226;1277;22618;-73
2022/09/25 01:35:37;;;;;;;;;;;;;;;;;;;;;
2022/09/25 01:41:55;;;;;;;28.30;16.90;;;;;;;9.31;91.90;98394.45;220209;1278;25394;-74
2022/09/25 01:48:18;;;;;;;;;;;;;;;;;;;;;
2022/09/25 01:54:27;;;;;;;27.50;16.70;;;;;;;9.33;91.91;98402.18;215530;1278;22494;-74
2022/09/25 02:00:24;;;;;;;31.10;16.70;;;;;;;9.34;91.84;98399.59;219836;1276;24174;-73
2022/09/25 02:06:43;;;;;;;;;;;;;;;;;;;;;
2022/09/25 02:13:02;;;;;;;;;;;;;;;;;;;;;
2022/09/25 02:25:40;;;;;;;27.90;16.80;;;;;;;9.28;91.97;98400.05;218876;1285;22568;-73
2022/09/25 02:31:46;;;;;;;29.60;16.80;;;;;;;9.24;92.19;98397.91;219932;1284;24323;-74
2022/09/25 02:38:31;;;;;;;;;;;;;;;;;;;;;
2022/09/25 02:45:03;;;;;;;32.10;18.10;;;;;;;9.20;92.29;98401.55;219034;1284;22936;-74
2022/09/25 02:51:56;;;;;;;;;;;;;;;;;;;;;
2022/09/25 02:58:06;;;;;;;;;;;;;;;;;;;;;
2022/09/25 03:04:15;;;;;;;28.10;17.40;;;;;;;9.12;92.54;98384.18;219740;1276;22565;-74
2022/09/25 03:10:25;;;;;;;;;;;;;;;;;;;;;
2022/09/25 03:17:24;;;;;;;;;;;;;;;;;;;;;
2022/09/25 03:23:23;;;;;;;26.70;17.20;;;;;;;9.03;92.50;98373.34;219351;1284;22591;-73
2022/09/25 03:29:49;;;;;;;31.20;19.00;;;;;;;8.99;92.91;98373.98;218996;1284;24246;-73
2022/09/25 03:36:23;;;;;;;;;;;;;;;;;;;;;
2022/09/25 03:42:29;;;;;;;37.00;19.80;;;;;;;8.96;93.04;98373.48;219671;1278;22608;-72
2022/09/25 03:48:52;;;;;;;30.70;18.50;;;;;;;8.97;93.26;98374.55;220221;1276;24283;-73
2022/09/25 03:55:37;;;;;;;30.10;19.00;;;;;;;8.99;93.33;98373.16;220528;1276;22539;-73
2022/09/25 04:02:14;;;;;;;26.50;16.30;;;;;;;9.02;93.34;98369.87;219485;1281;22593;-73
2022/09/25 04:08:53;;;;;;;34.50;19.80;;;;;;;9.07;93.64;98369.55;219082;1281;22555;-74
2022/09/25 04:15:22;;;;;;;32.20;20.00;;;;;;;9.11;93.68;98366.70;219036;1281;22760;-73
2022/09/25 04:21:34;;;;;;;34.40;21.20;;;;;;;9.14;93.69;98364.44;219015;1281;24451;-73
2022/09/25 04:28:22;;;;;;;34.20;20.70;;;;;;;9.18;93.61;98369.95;219468;1281;25965;-74
2022/09/25 05:02:28;;;;;;;33.00;18.80;;;;;;;9.34;93.87;98383.28;219443;1281;22567;-73
2022/09/25 05:08:59;;;;;;;;;;;;;;;;;;;;;
2022/09/25 05:15:16;;;;;;;34.20;20.90;;;;;;;9.45;93.94;98380.29;219215;1281;24238;-74
2022/09/25 05:22:05;;;;;;;31.80;20.20;;;;;;;9.51;93.93;98383.25;219043;1281;22515;-74
2022/09/25 05:28:23;;;;;;;34.60;19.90;;;;;;;9.56;93.68;98379.86;219718;1277;23089;-74
2022/09/25 05:48:40;;;;;;;30.20;18.90;;;;;;;9.69;93.67;98362.38;220182;1277;22563;-75
2022/09/25 05:55:34;;;;;;;;;;;;;;;;;;;;;
2022/09/25 06:07:40;;;;;;;31.50;20.50;;;;;;;9.85;94.27;98370.04;219353;1284;22717;-75
2022/09/25 06:14:14;;;;;;;31.30;19.20;;;;;;;9.90;94.73;98369.90;219370;1282;22646;-74
2022/09/25 06:20:49;;;;;;;30.50;19.20;;;;;;;9.97;94.85;98365.28;219399;1282;22584;-74
2022/09/25 06:26:58;;;;;;;26.70;16.60;;;;;;;10.02;94.56;98364.98;219745;1277;22593;-75
2022/09/25 06:33:21;;;;;;;34.00;18.90;;;;;;;10.05;94.91;98365.90;220251;1277;22551;-73
2022/09/25 06:39:13;;;;;;;31.00;20.00;;;;;;;10.10;95.12;98360.84;219873;1277;26710;-74
2022/09/25 06:45:23;;;;;;;;;;;;;;;;;;;;;
2022/09/25 06:51:17;;;;;;;29.80;17.80;;;;;;;10.41;95.71;98360.34;218884;1284;24513;-74
2022/09/25 07:08:04;;;;;;;26.70;16.40;;;;;;;10.93;95.70;98360.52;219213;1282;24689;-74
2022/09/25 07:14:01;;;;;;;;;;;;;;;;;;;;;
2022/09/25 07:20:11;;;;;;;19.90;13.50;;;;;;;11.10;95.36;98369.35;218897;1282;22545;-74
2022/09/25 07:26:22;;;;;;;19.80;12.60;;;;;;;11.13;95.41;98371.23;219560;1277;22582;-73
2022/09/25 07:32:09;;;;;;;20.10;13.50;;;;;;;11.24;96.00;98366.38;220938;1277;22594;-79
2022/09/25 07:38:35;;;;;;;22.50;14.30;;;;;;;11.44;95.96;98365.91;221286;1279;22565;-79
2022/09/25 07:44:34;;;;;;;21.00;14.60;;;;;;;11.57;95.96;98365.73;221781;1279;24717;-78
2022/09/25 07:50:38;;;;;;;22.50;15.20;;;;;;;11.74;96.15;98362.16;221416;1279;22624;-76
2022/09/25 07:55:57;;;;;;;22.00;15.10;;;;;;;11.88;95.98;98360.11;222192;1279;25893;-77
2022/09/25 08:02:34;;;;;;;22.50;14.80;;;;;;;12.09;95.87;98356.06;221871;1279;25668;-78
2022/09/25 08:09:05;;;;;;;20.10;14.60;;;;;;;12.26;95.85;98361.00;222084;1281;22586;-78
2022/09/25 08:14:47;;;;;;;24.80;15.10;;;;;;;12.38;96.02;98363.59;222268;1281;22627;-78
2022/09/25 08:21:01;;;;;;;23.00;16.00;;;;;;;12.54;95.86;98368.51;221868;1281;24253;-80
2022/09/25 08:27:20;;;;;;;23.60;14.80;;;;;;;12.75;95.56;98353.14;221766;1282;22561;-78
2022/09/25 08:32:28;;;;;;;15.40;12.20;;;;;;;13.04;95.52;98346.61;221275;1282;22757;-79
2022/09/25 08:37:44;;;;;;;15.00;10.80;;;;;;;13.32;95.33;98349.04;221294;1281;25357;-79
2022/09/25 08:43:40;;;;;;;13.90;9.90;;;;;;;13.62;95.07;98350.19;221072;1281;24211;-77
2022/09/25 08:49:25;;;;;;;;;;;;;;;;;;;;;
2022/09/25 08:54:53;;;;;;;15.90;11.70;;;;;;;14.01;93.92;98347.29;220681;1278;22606;-79
2022/09/25 09:01:15;;;;;;;;;;;;;;;;;;;;;
2022/09/25 09:07:01;;;;;;;16.40;11.60;;;;;;;14.19;93.58;98340.27;219810;1284;24213;-78
2022/09/25 09:13:24;;;;;;;15.30;11.40;;;;;;;14.41;93.61;98340.52;220202;1284;22566;-77
2022/09/25 09:19:37;;;;;;;15.30;10.40;;;;;;;14.61;93.19;98334.85;220063;1284;22678;-79
2022/09/25 09:27:07;;;;;;;12.70;9.80;;;;;;;14.77;92.28;98335.25;219107;1287;22578;-79
2022/09/25 09:32:55;;;;;;;;;;;;;;;;;;;;;
2022/09/25 09:38:30;;;;;;;14.60;9.20;;;;;;;15.03;90.42;98341.98;220439;1281;24480;-78
2022/09/25 09:44:41;;;;;;;10.10;7.80;;;;;;;14.81;89.82;98336.38;220668;1281;25495;-78
2022/09/25 09:51:33;;;;;;;11.30;9.00;;;;;;;14.73;90.77;98328.79;221070;1276;22549;-80
2022/09/25 09:58:49;;;;;;;11.00;7.20;;;;;;;15.09;91.21;98323.63;220759;1276;23012;-78
2022/09/25 10:04:36;;;;;;;10.60;8.10;;;;;;;15.46;90.02;98316.70;220547;1276;22569;-77
2022/09/25 10:11:07;;;;;;;;;;;;;;;;;;;;;
2022/09/25 10:16:51;;;;;;;10.60;7.60;;;;;;;15.94;89.28;98311.65;221697;1276;24233;-78
2022/09/25 10:22:42;;;;;;;11.50;6.90;;;;;;;16.09;88.83;98312.77;221168;1276;24238;-79
2022/09/25 10:28:33;;;;;;;8.00;6.10;;;;;;;16.25;87.28;98313.29;220859;1276;22788;-77
2022/09/25 10:34:36;;;;;;;;;;;;;;;;;;;;;
2022/09/25 10:41:04;;;;;;;11.40;8.50;;;;;;;16.44;86.80;98297.05;220479;1279;22511;-78
2022/09/25 10:52:04;;;;;;;15.90;10.10;;;;;;;16.44;85.85;98285.67;220930;1279;22766;-79
2022/09/25 10:58:04;;;;;;;16.00;12.10;;;;;;;16.45;85.51;98284.80;220339;1279;22577;-79
2022/09/25 11:03:59;;;;;;;14.30;10.10;;;;;;;16.48;85.33;98288.42;219458;1281;22632;-78
2022/09/25 11:09:41;;;;;;;;;;;;;;;;;;;;;
2022/09/25 11:16:45;;;;;;;16.70;10.50;;;;;;;16.64;85.05;98290.39;219435;1283;22541;-79
2022/09/25 11:22:03;;;;;;;10.10;7.80;;;;;;;16.73;84.81;98286.72;219343;1284;22560;-75
2022/09/25 11:28:06;;;;;;;9.10;7.30;;;;;;;16.93;84.71;98287.77;219960;1281;24218;-78
2022/09/25 11:34:34;;;;;;;8.30;6.00;;;;;;;17.16;83.54;98278.70;220118;1281;22579;-79
2022/09/25 11:46:52;;;;;;;9.80;7.00;;;;;;;16.95;82.46;98243.09;221108;1277;22563;-78
2022/09/25 11:52:52;;;;;;;12.20;6.80;;;;;;;16.98;81.98;98233.20;221010;1280;25525;-77
2022/09/25 11:58:50;;;;;;;10.20;6.40;;;;;;;17.09;82.35;98225.55;221034;1281;23860;-79
2022/09/25 12:05:36;;;;;;;7.10;6.10;;;;;;;17.28;81.04;98227.98;220668;1281;25386;-78
2022/09/25 12:11:59;;;;;;;9.50;6.10;;;;;;;17.46;81.51;98232.70;221464;1279;22602;-79
2022/09/25 12:17:51;;;;;;;8.10;5.70;;;;;;;17.59;81.33;98215.31;221546;1276;22668;-79
2022/09/25 12:23:21;;;;;;;11.80;8.50;;;;;;;17.83;81.27;98211.34;221156;1276;22575;-79
2022/09/25 12:29:27;;;;;;;7.50;6.10;;;;;;;18.04;80.66;98204.67;220923;1281;25324;-79
2022/09/25 12:35:37;;;;;;;7.50;5.80;;;;;;;18.18;79.87;98197.70;220883;1281;25522;-79
2022/09/25 12:41:35;;;;;;;5.90;4.40;;;;;;;18.18;79.18;98195.42;220666;1281;22500;-78
2022/09/25 12:47:44;;;;;;;6.20;4.00;;;;;;;18.16;78.29;98194.55;219669;1284;22562;-78
2022/09/25 12:54:07;;;;;;;6.30;5.10;;;;;;;18.21;77.11;98202.11;220157;1281;22723;-77
2022/09/25 12:59:51;;;;;;;5.30;4.20;;;;;;;18.16;76.89;98199.98;220171;1281;22546;-80
2022/09/25 13:06:09;;;;;;;4.90;3.80;;;;;;;18.20;77.19;98197.96;220433;1280;22694;-77
2022/09/25 13:11:53;;;;;;;6.70;4.70;;;;;;;18.19;76.24;98196.39;221524;1276;22570;-78
2022/09/25 13:17:30;;;;;;;6.20;4.90;;;;;;;18.23;77.10;98187.67;221377;1279;22573;-79
2022/09/25 13:23:02;;;;;;;7.30;5.20;;;;;;;18.44;77.45;98183.25;221766;1279;22663;-79
2022/09/25 13:29:37;;;;;;;6.00;4.40;;;;;;;18.56;77.55;98183.64;222264;1279;25249;-78
2022/09/25 13:35:15;;;;;;;6.30;4.70;;;;;;;18.54;76.67;98183.83;220890;1281;23811;-78
2022/09/25 13:40:44;;;;;;;7.70;5.40;;;;;;;18.45;76.81;98182.42;220246;1284;22596;-78
2022/09/25 13:46:08;;;;;;;7.20;4.70;;;;;;;18.40;76.83;98173.92;220407;1281;24458;-79
2022/09/25 13:51:46;;;;;;;6.20;4.50;;;;;;;18.56;77.17;98166.52;220851;1280;2818305;-78
2022/09/25 13:57:20;;;;;;;9.70;6.60;;;;;;;18.44;75.36;98167.83;222999;1276;22672;-79
2022/09/25 14:02:49;;;;;;;5.90;4.30;;;;;;;18.21;75.82;98162.38;222191;1281;22790;-79
2022/09/25 14:08:36;;;;;;;4.40;3.70;;;;;;;18.00;74.86;98153.55;222221;1284;24287;-76
2022/09/25 14:14:25;;;;;;;13.50;10.40;;;;;;;17.79;75.48;98151.66;221198;1287;22684;-78
2022/09/25 14:19:38;;;;;;;24.10;17.50;;;;;;;17.71;76.12;98150.14;221316;1288;24305;-79
2022/09/25 14:24:57;;;;;;;9.90;7.50;;;;;;;17.63;76.41;98147.31;221151;1288;25262;-78
2022/09/25 14:30:12;;;;;;;10.20;6.20;;;;;;;17.59;76.70;98150.34;221494;1288;22594;-79
2022/09/25 14:35:46;;;;;;;8.50;6.50;;;;;;;17.56;76.73;98144.15;222325;1285;22558;-78
2022/09/25 14:41:27;;;;;;;8.20;6.10;;;;;;;17.53;76.97;98145.92;223490;1279;22629;-77
2022/09/25 14:46:50;;;;;;;16.80;11.00;;;;;;;17.48;76.87;98154.39;224103;1277;24923;-78
2022/09/25 14:52:53;;;;;;;8.50;6.80;;;;;;;17.39;77.26;98138.86;224246;1276;22584;-78
2022/09/25 14:58:20;;;;;;;17.80;10.50;;;;;;;17.30;77.55;98139.26;224347;1276;24190;-76
2022/09/25 15:03:58;;;;;;;10.60;6.80;;;;;;;17.19;78.13;98134.55;223514;1282;22572;-77
2022/09/25 15:09:46;;;;;;;12.50;9.60;;;;;;;17.12;78.37;98126.34;222768;1282;22551;-76
2022/09/25 15:15:29;;;;;;;9.20;6.50;;;;;;;17.05;78.64;98113.12;222437;1284;23096;-77
2022/09/25 15:20:51;;;;;;;10.30;6.90;;;;;;;16.97;78.74;98116.97;222158;1284;23274;-78
2022/09/25 15:26:17;;;;;;;10.70;7.80;;;;;;;16.88;78.69;98115.84;222966;1276;22668;-78
2022/09/25 15:32:17;;;;;;;10.40;7.50;;;;;;;16.83;78.81;98107.95;223539;1281;22490;-77
2022/09/25 15:37:37;;;;;;;28.10;19.70;;;;;;;16.74;79.31;98124.56;222404;1283;22630;-77
2022/09/25 15:43:20;;;;;;;16.80;12.00;;;;;;;16.61;79.81;98120.42;222078;1287;22647;-77
2022/09/25 15:48:50;;;;;;;8.90;7.60;;;;;;;16.45;80.22;98113.33;221886;1286;22565;-78
2022/09/25 15:54:23;;;;;;;11.00;6.40;;;;;;;16.23;80.89;98118.72;221776;1287;22582;-78
2022/09/25 15:59:33;;;;;;;12.20;6.80;;;;;;;16.04;81.49;98119.34;221876;1284;22615;-79
2022/09/25 16:04:56;;;;;;;7.60;5.50;;;;;;;15.90;82.16;98117.83;221747;1284;22575;-78
2022/09/25 16:10:39;;;;;;;7.50;5.30;;;;;;;15.74;82.43;98108.77;221184;1280;22578;-79
2022/09/25 16:15:57;;;;;;;8.50;5.60;;;;;;;15.55;83.01;98111.79;220675;1276;22661;-79
2022/09/25 16:22:05;;;;;;;8.80;6.30;;;;;;;15.38;83.72;98111.11;220049;1278;24300;-78
2022/09/25 16:27:58;;;;;;;8.00;6.30;;;;;;;15.22;84.26;98107.86;217749;1287;24376;-80
2022/09/25 16:34:35;;;;;;;10.20;7.10;;;;;;;15.01;84.81;98106.13;217638;1287;22982;-79
2022/09/25 16:40:35;;;;;;;11.90;8.50;;;;;;;14.84;85.36;98103.77;219340;1281;25506;-78
2022/09/25 16:46:33;;;;;;;9.10;7.10;;;;;;;14.77;86.08;98105.14;218909;1284;24322;-79
2022/09/25 16:52:02;;;;;;;14.90;10.40;;;;;;;14.67;86.36;98107.67;219472;1281;22580;-79
2022/09/25 16:57:55;;;;;;;13.60;9.30;;;;;;;14.61;86.88;98106.79;219758;1281;22546;-79
2022/09/25 17:03:58;;;;;;;;;;;;;;;;;;;;;
2022/09/25 17:10:27;;;;;;;;;;;;;;;;;;;;;
2022/09/25 17:16:54;;;;;;;17.70;12.90;;;;;;;14.46;88.25;98107.64;219626;1279;25547;-78
2022/09/25 17:22:28;;;;;;;18.60;13.40;;;;;;;14.42;88.53;98105.48;219360;1281;22538;-78
2022/09/25 17:27:40;;;;;;;19.50;10.30;;;;;;;14.35;88.89;98110.70;219613;1281;22556;-78
2022/09/25 17:33:30;;;;;;;18.70;14.10;;;;;;;14.22;89.26;98113.09;219270;1284;22556;-78
2022/09/25 17:39:38;;;;;;;26.20;17.00;;;;;;;14.10;89.54;98113.71;219020;1281;22506;-76
2022/09/25 17:45:09;;;;;;;25.20;17.30;;;;;;;14.02;89.85;98112.37;219360;1281;22582;-78
2022/09/25 17:51:32;;;;;;;27.90;17.90;;;;;;;13.93;90.09;98108.56;219340;1281;22717;-77
2022/09/25 17:57:10;;;;;;;19.80;13.70;;;;;;;13.80;90.18;98102.44;219308;1281;25421;-77
2022/09/25 18:03:29;;;;;;;22.20;14.70;;;;;;;13.56;90.43;98099.44;219456;1279;25423;-77
2022/09/25 18:08:58;;;;;;;20.70;14.50;;;;;;;13.35;90.62;98092.23;219653;1279;22761;-78
2022/09/25 18:14:57;;;;;;;24.20;15.20;;;;;;;13.18;90.97;98089.85;219619;1281;22668;-77
2022/09/25 18:26:04;;;;;;;22.40;15.50;;;;;;;12.94;91.63;98097.70;219677;1279;24236;-77
2022/09/25 18:31:27;;;;;;;26.50;16.80;;;;;;;12.84;91.84;98094.73;219660;1276;26578;-78
2022/09/25 18:36:32;;;;;;;27.00;17.00;;;;;;;12.74;91.97;98096.54;220049;1276;22563;-78
2022/09/25 18:41:51;;;;;;;25.50;17.10;;;;;;;12.62;92.27;98096.89;220118;1276;22546;-78
2022/09/25 18:46:55;;;;;;;30.40;19.50;;;;;;;12.52;92.18;98097.00;219977;1276;24464;-78
2022/09/25 18:52:30;;;;;;;31.60;20.40;;;;;;;12.41;92.43;98090.47;219738;1278;22559;-77
2022/09/25 18:57:50;;;;;;;36.60;21.90;;;;;;;12.30;92.70;98083.69;219807;1277;24433;-77
2022/09/25 19:03:22;;;;;;;31.20;20.10;;;;;;;12.18;93.11;98080.33;220040;1276;25380;-77
2022/09/25 19:08:39;;;;;;;31.20;20.50;;;;;;;12.08;93.20;98086.48;219905;1276;24116;-76
2022/09/25 19:14:51;;;;;;;;;;;;;;;;;;;;;
2022/09/25 19:20:03;;;;;;;32.70;21.40;;;;;;;11.88;94.10;98094.83;220134;1276;24240;-77
2022/09/25 19:25:53;;;;;;;;;;;;;;;;;;;;;
2022/09/25 19:31:27;;;;;;;34.20;21.60;;;;;;;11.84;94.71;98091.80;220155;1276;22547;-78
2022/09/25 19:37:05;;;;;;;28.10;19.10;;;;;;;11.85;94.64;98093.82;219977;1276;24269;-78
2022/09/25 19:42:29;;;;;;;;;;;;;;;11.86;95.25;98087.81;219793;1278;23098;-78
2022/09/25 19:48:38;;;;;;;27.90;18.30;;;;;;;11.83;95.62;98086.40;220022;1277;23003;-76
2022/09/25 19:53:48;;;;;;;31.80;19.50;;;;;;;11.79;95.87;98083.64;220019;1276;24236;-78
2022/09/25 19:58:50;;;;;;;27.60;18.50;;;;;;;11.73;96.00;98084.95;219852;1276;24245;-77
2022/09/25 20:04:32;;;;;;;30.00;18.90;;;;;;;11.66;96.01;98082.55;220068;1276;22948;-77
2022/09/25 20:10:01;;;;;;;28.20;19.20;;;;;;;11.57;96.22;98082.30;219804;1278;22631;-77
2022/09/25 20:15:32;;;;;;;35.00;21.10;;;;;;;11.49;96.37;98081.83;219803;1278;22764;-76
2022/09/25 20:21:08;;;;;;;28.70;18.60;;;;;;;11.41;96.50;98078.09;219615;1281;24249;-76
2022/09/25 20:26:41;;;;;;;38.40;25.20;;;;;;;11.36;96.59;98081.15;219495;1281;25266;-78
2022/09/25 20:32:04;;;;;;;28.10;19.60;;;;;;;11.29;96.72;98071.26;219528;1281;22666;-76
2022/09/25 20:37:13;;;;;;;32.60;20.50;;;;;;;11.22;96.73;98067.16;219569;1281;22550;-78
2022/09/25 20:42:50;;;;;;;32.20;20.90;;;;;;;11.15;96.81;98068.86;219579;1278;22588;-76
2022/09/25 20:48:23;;;;;;;32.90;19.70;;;;;;;11.07;96.72;98058.67;220232;1278;22633;-78
2022/09/25 20:53:55;;;;;;;32.30;20.30;;;;;;;11.01;97.00;98057.48;219910;1279;22544;-78
2022/09/25 20:59:04;;;;;;;31.60;19.10;;;;;;;10.95;96.91;98058.52;220237;1278;24293;-76
2022/09/25 21:04:57;;;;;;;31.60;20.10;;;;;;;10.90;96.94;98056.14;220084;1278;25221;-78
2022/09/25 21:11:06;;;;;;;;;;;;;;;;;;;;;
2022/09/25 21:17:13;;;;;;;30.20;19.20;;;;;;;10.73;97.09;98045.08;220139;1277;24447;-77
2022/09/25 21:22:43;;;;;;;37.20;20.80;;;;;;;10.65;97.37;98041.10;220119;1277;22670;-77
2022/09/25 21:28:04;;;;;;;34.70;22.20;;;;;;;10.58;97.33;98045.43;219978;1278;22531;-77
2022/09/25 21:33:38;;;;;;;34.20;20.40;;;;;;;10.50;97.31;98047.46;219947;1278;24305;-77
2022/09/25 21:39:36;;;;;;;33.10;20.70;;;;;;;10.43;97.63;98047.96;219833;1279;22557;-77
2022/09/25 21:45:35;;;;;;;35.90;21.80;;;;;;;10.35;97.46;98044.02;219454;1281;22759;-77
2022/09/25 21:51:00;;;;;;;35.00;21.60;;;;;;;10.27;97.69;98043.95;219512;1279;24234;-77
2022/09/25 21:56:23;;;;;;;37.80;22.30;;;;;;;10.20;97.80;98039.58;219695;1279;22656;-77
2022/09/25 22:02:12;;;;;;;38.30;23.20;;;;;;;10.10;97.52;98026.43;219379;1279;22639;-78
2022/09/25 22:08:23;;;;;;;38.70;22.70;;;;;;;10.00;97.75;98011.61;218958;1281;25438;-77
2022/09/25 22:14:35;;;;;;;;;;;;;;;;;;;;;
2022/09/25 22:20:26;;;;;;;39.20;21.90;;;;;;;9.85;97.95;98003.98;219197;1281;24300;-77
2022/09/25 22:26:02;;;;;;;34.30;21.40;;;;;;;9.76;98.13;98004.00;219120;1281;22611;-77
2022/09/25 22:31:43;;;;;;;31.90;19.20;;;;;;;9.71;98.49;97998.23;218414;1284;24128;-76
2022/09/25 22:37:54;;;;;;;31.70;17.60;;;;;;;9.69;98.73;97992.29;219251;1281;22559;-77
2022/09/25 22:44:11;;;;;;;20.80;14.20;;;;;;;9.69;99.01;97995.34;219569;1278;22604;-77
2022/09/25 22:49:17;;;;;;;28.70;17.70;;;;;;;9.72;99.73;98005.55;220271;1278;22626;-78
2022/09/25 22:54:39;;;;;;;32.60;20.50;;;;;;;9.79;99.99;98006.73;219739;1277;24248;-77
2022/09/25 22:59:59;;;;;;;33.60;19.70;;;;;;;9.88;100.00;98005.41;219970;1277;24837;-78
2022/09/25 23:06:21;;;;;;;36.50;22.40;;;;;;;9.97;100.00;98003.23;220033;1278;24313;-78
2022/09/25 23:11:31;;;;;;;38.50;24.00;;;;;;;10.03;100.00;97994.08;219945;1277;22553;-77
2022/09/25 23:17:07;;;;;;;41.60;23.80;;;;;;;10.09;100.00;97992.71;220000;1277;22571;-77
2022/09/25 23:23:40;;;;;;;36.10;23.60;;;;;;;10.18;100.00;97977.69;219711;1277;22695;-77
2022/09/25 23:28:50;;;;;;;36.40;23.20;;;;;;;10.24;100.00;97973.04;219875;1278;23087;-76
2022/09/25 23:34:13;;;;;;;38.70;24.10;;;;;;;10.29;100.00;97962.48;219979;1276;22548;-77
2022/09/25 23:39:36;;;;;;;39.00;23.50;;;;;;;10.32;100.00;97958.17;220200;1277;23856;-77
2022/09/25 23:46:08;;;;;;;27.50;18.00;;;;;;;10.32;100.00;97964.54;219528;1281;22728;-77
2022/09/25 23:57:43;;;;;;;40.70;23.70;;;;;;;10.25;100.00;97949.20;219563;1281;22592;-77
